Time;durP1;ratioP1;P1;durP2;ratioP2;P2;SDS_P1;SDS_P2;PMS_P1;PMS_P2;Temp;Humidity;BMP_temperature;BMP_pressure;BME280_temperature;BME280_humidity;BME280_pressure;Samples;Min_cycle;Max_cycle;Signal;HPM_P1;HPM_P2
2023/08/12 00:00:18;;;;;;;9.52;8.60;;;;;;;;;;5131377;27;20031;-73
2023/08/12 00:02:45;;;;;;;11.63;9.88;;;;;;;;;;5112991;27;20117;-73
2023/08/12 00:05:12;;;;;;;15.80;12.20;;;;;;;;;;5131036;27;20163;-73
2023/08/12 00:07:38;;;;;;;12.55;11.35;;;;;;;;;;5112886;27;20527;-72
2023/08/12 00:10:04;;;;;;;11.02;10.13;;;;;;;;;;5131055;27;20077;-73
2023/08/12 00:12:34;;;;;;;14.07;11.25;;;;;;;;;;5130859;27;20031;-74
2023/08/12 00:15:00;;;;;;;12.43;11.15;;;;;;;;;;5131094;27;20084;-73
2023/08/12 00:17:26;;;;;;;16.60;10.52;;;;;;;;;;5131235;27;20461;-74
2023/08/12 00:19:52;;;;;;;11.25;10.10;;;;;;;;;;5131181;27;20099;-72
2023/08/12 00:22:18;;;;;;;15.05;9.98;;;;;;;;;;5131108;27;20050;-74
2023/08/12 00:24:44;;;;;;;10.13;9.10;;;;;;;;;;5131237;27;20039;-71
2023/08/12 00:27:10;;;;;;;11.35;9.70;;;;;;;;;;5135224;27;20035;-74
2023/08/12 00:29:36;;;;;;;14.50;9.82;;;;;;;;;;5135604;27;20630;-73
2023/08/12 00:32:02;;;;;;;10.88;9.73;;;;;;;;;;5117217;27;20038;-74
2023/08/12 00:34:28;;;;;;;12.23;10.18;;;;;;;;;;5137744;27;20047;-73
2023/08/12 00:36:54;;;;;;;9.60;8.70;;;;;;;;;;5130381;27;20479;-72
2023/08/12 00:39:22;;;;;;;9.90;8.27;;;;;;;;;;5149412;27;20092;-74
2023/08/12 00:41:48;;;;;;;10.32;9.35;;;;;;;;;;5117227;27;20450;-72
2023/08/12 00:44:14;;;;;;;10.13;9.25;;;;;;;;;;5134792;27;20070;-72
2023/08/12 00:46:41;;;;;;;9.05;8.35;;;;;;;;;;5135137;27;20516;-73
2023/08/12 00:49:07;;;;;;;10.02;8.80;;;;;;;;;;5116503;27;20099;-73
2023/08/12 00:51:34;;;;;;;10.98;9.32;;;;;;;;;;5116485;27;20031;-72
2023/08/12 00:54:05;;;;;;;9.93;8.90;;;;;;;;;;5099466;27;20027;-72
2023/08/12 00:56:31;;;;;;;11.18;9.13;;;;;;;;;;5134577;27;20462;-73
2023/08/12 00:58:58;;;;;;;9.35;8.43;;;;;;;;;;5099420;27;20147;-73
2023/08/12 01:01:25;;;;;;;11.38;8.82;;;;;;;;;;5099436;27;20039;-73
2023/08/12 01:03:51;;;;;;;9.15;8.35;;;;;;;;;;5134843;27;20114;-72
2023/08/12 01:06:17;;;;;;;9.68;8.30;;;;;;;;;;5134097;27;20023;-73
2023/08/12 01:08:44;;;;;;;12.45;8.38;;;;;;;;;;5134510;27;20530;-73
2023/08/12 01:11:14;;;;;;;9.57;8.57;;;;;;;;;;5134138;27;20035;-73
2023/08/12 01:13:44;;;;;;;9.45;8.20;;;;;;;;;;5134339;27;20059;-73
2023/08/12 01:16:10;;;;;;;9.23;8.43;;;;;;;;;;5115704;27;20092;-73
2023/08/12 01:18:36;;;;;;;11.75;9.73;;;;;;;;;;5115974;27;20039;-72
2023/08/12 01:21:03;;;;;;;12.07;10.07;;;;;;;;;;5115746;27;20035;-72
2023/08/12 01:23:29;;;;;;;11.65;10.30;;;;;;;;;;5134518;27;20563;-73
2023/08/12 01:25:55;;;;;;;18.30;14.80;;;;;;;;;;5115842;27;20038;-73
2023/08/12 01:28:21;;;;;;;19.63;13.68;;;;;;;;;;5133798;27;20046;-73
2023/08/12 01:30:52;;;;;;;12.18;10.85;;;;;;;;;;5115733;27;20041;-72
2023/08/12 01:33:20;;;;;;;11.40;9.52;;;;;;;;;;5098676;27;20031;-73
2023/08/12 01:35:49;;;;;;;13.35;10.07;;;;;;;;;;5133656;27;20063;-72
2023/08/12 01:38:14;;;;;;;18.65;11.68;;;;;;;;;;5098220;27;20046;-72
2023/08/12 01:40:40;;;;;;;10.30;9.32;;;;;;;;;;5098754;27;20035;-73
2023/08/12 01:43:08;;;;;;;16.20;10.30;;;;;;;;;;5115387;27;20039;-72
2023/08/12 01:45:35;;;;;;;9.80;8.80;;;;;;;;;;5134012;27;20031;-73
2023/08/12 01:48:02;;;;;;;11.10;9.98;;;;;;;;;;5115138;27;20413;-72
2023/08/12 01:50:29;;;;;;;12.70;8.60;;;;;;;;;;5133980;27;20042;-73
2023/08/12 01:52:55;;;;;;;12.20;9.10;;;;;;;;;;5133546;27;20118;-72
2023/08/12 01:55:21;;;;;;;12.52;9.35;;;;;;;;;;5133116;27;20039;-72
2023/08/12 01:57:48;;;;;;;10.27;9.00;;;;;;;;;;5115017;27;20050;-70
2023/08/12 02:00:15;;;;;;;9.20;8.30;;;;;;;;;;5114889;27;20035;-72
2023/08/12 02:02:47;;;;;;;9.90;8.85;;;;;;;;;;5133452;27;20042;-73
2023/08/12 02:05:13;;;;;;;10.77;8.70;;;;;;;;;;5133193;27;20495;-72
2023/08/12 02:07:39;;;;;;;11.75;8.68;;;;;;;;;;5098201;27;20065;-72
2023/08/12 02:10:06;;;;;;;10.13;9.20;;;;;;;;;;5133031;27;20053;-72
2023/08/12 02:12:33;;;;;;;12.38;9.85;;;;;;;;;;5097989;27;20049;-72
2023/08/12 02:15:00;;;;;;;11.65;9.63;;;;;;;;;;5133295;27;20500;-73
2023/08/12 02:17:26;;;;;;;11.15;9.73;;;;;;;;;;5132987;27;20023;-73
2023/08/12 02:19:52;;;;;;;18.08;10.90;;;;;;;;;;5114756;27;20115;-72
2023/08/12 02:22:18;;;;;;;11.30;10.15;;;;;;;;;;5132662;27;20113;-72
2023/08/12 02:24:46;;;;;;;11.63;10.15;;;;;;;;;;5098150;27;20043;-74
2023/08/12 02:27:12;;;;;;;11.10;10.07;;;;;;;;;;5132384;27;20027;-73
2023/08/12 02:29:40;;;;;;;11.38;10.48;;;;;;;;;;5114656;27;20050;-72
2023/08/12 02:32:05;;;;;;;11.77;10.55;;;;;;;;;;5114305;27;20035;-72
2023/08/12 02:34:32;;;;;;;13.13;10.20;;;;;;;;;;5133109;27;20068;-72
2023/08/12 02:36:58;;;;;;;10.75;9.57;;;;;;;;;;5136537;27;20083;-73
2023/08/12 02:39:24;;;;;;;14.88;9.90;;;;;;;;;;5115358;27;20126;-72
2023/08/12 02:41:50;;;;;;;11.77;9.70;;;;;;;;;;5132621;27;20509;-72
2023/08/12 02:44:16;;;;;;;11.48;9.00;;;;;;;;;;5132317;27;20039;-72
2023/08/12 02:46:42;;;;;;;18.85;9.50;;;;;;;;;;5132453;27;20068;-74
2023/08/12 02:49:09;;;;;;;10.15;9.32;;;;;;;;;;5112769;27;20133;-73
2023/08/12 02:51:35;;;;;;;10.90;10.00;;;;;;;;;;5113750;27;20050;-74
2023/08/12 02:54:01;;;;;;;16.63;9.73;;;;;;;;;;5114123;27;20035;-74
2023/08/12 02:56:27;;;;;;;10.35;9.20;;;;;;;;;;5132258;27;20122;-73
2023/08/12 02:58:53;;;;;;;10.57;9.13;;;;;;;;;;5132328;27;20445;-73
2023/08/12 03:01:21;;;;;;;14.70;9.65;;;;;;;;;;5131831;27;20038;-74
2023/08/12 03:03:47;;;;;;;10.13;9.30;;;;;;;;;;5132356;27;20035;-73
2023/08/12 03:06:13;;;;;;;11.40;8.85;;;;;;;;;;5113545;27;20126;-74
2023/08/12 03:08:39;;;;;;;9.25;8.43;;;;;;;;;;5132053;27;20517;-73
2023/08/12 03:11:06;;;;;;;9.27;8.45;;;;;;;;;;5113565;27;20497;-73
2023/08/12 03:13:32;;;;;;;9.13;7.63;;;;;;;;;;5131667;27;20134;-74
2023/08/12 03:15:58;;;;;;;9.07;8.30;;;;;;;;;;5113763;27;20046;-73
2023/08/12 03:18:25;;;;;;;9.07;8.38;;;;;;;;;;5113226;27;20031;-72
2023/08/12 03:20:51;;;;;;;9.55;8.70;;;;;;;;;;5113655;27;20117;-73
2023/08/12 03:23:19;;;;;;;9.80;8.93;;;;;;;;;;5113089;27;20091;-72
2023/08/12 03:25:49;;;;;;;9.15;8.25;;;;;;;;;;5131984;27;20039;-74
2023/08/12 03:28:16;;;;;;;12.25;7.53;;;;;;;;;;5113093;27;20121;-73
2023/08/12 03:30:42;;;;;;;10.35;9.02;;;;;;;;;;5113813;27;20110;-73
2023/08/12 03:33:09;;;;;;;14.85;8.57;;;;;;;;;;5113466;27;20054;-73
2023/08/12 03:35:36;;;;;;;13.25;8.98;;;;;;;;;;5113941;27;20573;-75
2023/08/12 03:38:02;;;;;;;9.98;8.98;;;;;;;;;;5132640;27;20463;-74
2023/08/12 03:40:28;;;;;;;12.02;8.32;;;;;;;;;;5114864;27;20417;-75
2023/08/12 03:42:55;;;;;;;10.23;9.32;;;;;;;;;;5115784;27;20035;-73
2023/08/12 03:45:24;;;;;;;10.57;8.63;;;;;;;;;;5125555;27;20038;-75
2023/08/12 03:47:50;;;;;;;9.70;8.85;;;;;;;;;;5144517;27;20038;-73
2023/08/12 03:50:17;;;;;;;9.95;9.05;;;;;;;;;;5115930;27;20050;-73
2023/08/12 03:52:43;;;;;;;9.68;8.50;;;;;;;;;;5113688;27;20035;-74
2023/08/12 03:55:09;;;;;;;13.35;8.75;;;;;;;;;;5112933;27;20083;-73
2023/08/12 03:57:36;;;;;;;10.82;8.00;;;;;;;;;;5112874;27;20027;-74
2023/08/12 04:00:04;;;;;;;9.20;7.82;;;;;;;;;;5112712;27;20419;-74
2023/08/12 04:02:40;;;;;;;11.10;9.65;;;;;;;;;;5112777;27;20037;-74
2023/08/12 04:05:07;;;;;;;12.82;8.38;;;;;;;;;;5131381;27;20118;-74
2023/08/12 04:07:33;;;;;;;9.00;8.38;;;;;;;;;;5131173;27;20418;-73
2023/08/12 04:09:59;;;;;;;11.68;8.23;;;;;;;;;;5131249;27;20086;-74
2023/08/12 04:12:25;;;;;;;9.15;8.20;;;;;;;;;;5130638;27;20031;-73
2023/08/12 04:14:51;;;;;;;10.43;8.20;;;;;;;;;;5131257;27;20042;-73
2023/08/12 04:17:17;;;;;;;11.38;8.27;;;;;;;;;;5112452;27;20042;-72
2023/08/12 04:19:43;;;;;;;9.30;8.25;;;;;;;;;;5112896;27;20042;-74
2023/08/12 04:22:09;;;;;;;10.38;7.90;;;;;;;;;;5112355;28;20122;-73
2023/08/12 04:24:35;;;;;;;7.72;6.72;;;;;;;;;;5131003;27;20035;-72
2023/08/12 04:27:01;;;;;;;8.93;8.23;;;;;;;;;;5112661;27;20046;-72
2023/08/12 04:29:28;;;;;;;16.50;8.35;;;;;;;;;;5095359;28;20074;-74
2023/08/12 04:31:54;;;;;;;10.40;8.43;;;;;;;;;;5130783;27;20045;-74
2023/08/12 04:34:20;;;;;;;9.98;9.00;;;;;;;;;;5130707;27;20118;-74
2023/08/12 04:36:46;;;;;;;8.70;8.00;;;;;;;;;;5112583;28;20039;-74
2023/08/12 04:39:12;;;;;;;10.30;8.68;;;;;;;;;;5130659;27;20126;-74
2023/08/12 04:41:39;;;;;;;10.10;8.68;;;;;;;;;;5112407;27;20110;-74
2023/08/12 04:44:05;;;;;;;12.40;8.40;;;;;;;;;;5112618;27;20039;-73
2023/08/12 04:46:31;;;;;;;9.00;8.20;;;;;;;;;;5130472;27;20046;-74
2023/08/12 04:48:57;;;;;;;9.05;8.20;;;;;;;;;;5112415;27;20046;-72
2023/08/12 04:51:24;;;;;;;7.93;7.28;;;;;;;;;;5112270;28;20035;-74
2023/08/12 04:53:50;;;;;;;9.30;8.52;;;;;;;;;;5112555;27;20042;-75
2023/08/12 04:56:17;;;;;;;9.48;8.52;;;;;;;;;;5130377;27;20042;-73
2023/08/12 04:58:45;;;;;;;9.60;8.70;;;;;;;;;;5112506;27;20535;-73
2023/08/12 05:01:11;;;;;;;10.20;9.25;;;;;;;;;;5112126;27;20065;-74
2023/08/12 05:03:37;;;;;;;11.05;8.77;;;;;;;;;;5095082;27;20031;-73
2023/08/12 05:06:04;;;;;;;9.73;9.02;;;;;;;;;;5112344;27;20035;-72
2023/08/12 05:08:31;;;;;;;11.05;9.23;;;;;;;;;;5111464;27;20031;-73
2023/08/12 05:10:57;;;;;;;13.93;9.23;;;;;;;;;;5130551;27;20038;-74
2023/08/12 05:13:24;;;;;;;10.73;9.82;;;;;;;;;;5098317;27;20421;-73
2023/08/12 05:15:50;;;;;;;10.77;9.18;;;;;;;;;;5116064;27;20050;-71
2023/08/12 05:18:18;;;;;;;9.70;8.85;;;;;;;;;;5115604;27;20038;-73
2023/08/12 05:20:44;;;;;;;10.02;9.20;;;;;;;;;;5115992;27;20470;-73
2023/08/12 05:23:10;;;;;;;10.05;9.15;;;;;;;;;;5115914;27;20050;-73
2023/08/12 05:25:36;;;;;;;9.63;8.93;;;;;;;;;;5115955;27;20036;-74
2023/08/12 05:28:03;;;;;;;9.55;8.75;;;;;;;;;;5133970;27;20516;-74
2023/08/12 05:30:29;;;;;;;12.00;9.43;;;;;;;;;;5119270;27;20081;-73
2023/08/12 05:32:55;;;;;;;11.27;9.25;;;;;;;;;;5137805;27;20035;-74
2023/08/12 05:35:21;;;;;;;9.43;8.80;;;;;;;;;;5115581;27;20064;-75
2023/08/12 05:37:47;;;;;;;10.38;8.23;;;;;;;;;;5133803;27;20045;-74
2023/08/12 05:40:13;;;;;;;10.55;8.75;;;;;;;;;;5133681;27;20091;-74
2023/08/12 05:42:39;;;;;;;10.98;9.70;;;;;;;;;;5133778;27;20082;-75
2023/08/12 05:45:05;;;;;;;11.27;9.38;;;;;;;;;;5115766;27;20474;-74
2023/08/12 05:47:33;;;;;;;9.90;9.00;;;;;;;;;;5133267;27;20528;-75
2023/08/12 05:50:00;;;;;;;10.75;9.45;;;;;;;;;;5133612;27;20039;-75
2023/08/12 05:52:29;;;;;;;8.90;8.00;;;;;;;;;;5115599;27;20481;-75
2023/08/12 05:54:56;;;;;;;10.52;9.07;;;;;;;;;;5133489;27;20031;-74
2023/08/12 05:57:22;;;;;;;8.27;7.50;;;;;;;;;;5114914;27;20031;-74
2023/08/12 05:59:48;;;;;;;9.68;8.77;;;;;;;;;;5133534;27;20027;-74
2023/08/12 06:02:14;;;;;;;12.60;8.50;;;;;;;;;;5133071;27;20083;-73
2023/08/12 06:04:40;;;;;;;9.00;8.10;;;;;;;;;;5115198;27;20522;-75
2023/08/12 06:07:06;;;;;;;12.57;7.80;;;;;;;;;;5114956;27;20053;-75
2023/08/12 06:09:33;;;;;;;9.35;8.40;;;;;;;;;;5132812;27;20038;-74
2023/08/12 06:11:59;;;;;;;8.68;7.65;;;;;;;;;;5133351;27;20081;-74
2023/08/12 06:14:24;;;;;;;8.43;7.63;;;;;;;;;;5132773;27;20115;-74
2023/08/12 06:16:50;;;;;;;8.70;7.38;;;;;;;;;;5114697;27;20039;-74
2023/08/12 06:19:17;;;;;;;9.15;7.22;;;;;;;;;;5114686;27;20417;-74
2023/08/12 06:21:43;;;;;;;7.60;6.97;;;;;;;;;;5133278;27;20031;-75
2023/08/12 06:24:09;;;;;;;8.80;6.93;;;;;;;;;;5133113;27;20035;-74
2023/08/12 06:26:35;;;;;;;7.88;7.18;;;;;;;;;;5133030;27;20479;-74
2023/08/12 06:29:01;;;;;;;8.38;7.60;;;;;;;;;;5133019;27;20039;-75
2023/08/12 06:31:27;;;;;;;16.95;7.38;;;;;;;;;;5114077;27;20087;-75
2023/08/12 06:33:53;;;;;;;9.20;8.10;;;;;;;;;;5132776;27;20568;-74
2023/08/12 06:36:19;;;;;;;7.18;6.57;;;;;;;;;;5132709;27;20059;-73
2023/08/12 06:38:45;;;;;;;9.15;7.55;;;;;;;;;;5133003;27;20066;-75
2023/08/12 06:41:12;;;;;;;8.35;7.60;;;;;;;;;;5132916;27;20035;-74
2023/08/12 06:43:38;;;;;;;8.30;7.60;;;;;;;;;;5132546;27;20050;-74
2023/08/12 06:46:05;;;;;;;12.40;7.65;;;;;;;;;;5133058;27;20138;-75
2023/08/12 06:48:31;;;;;;;14.73;8.30;;;;;;;;;;5133069;27;20028;-74
2023/08/12 06:50:57;;;;;;;9.30;8.30;;;;;;;;;;5136795;27;20039;-74
2023/08/12 06:53:24;;;;;;;11.27;8.45;;;;;;;;;;5141588;27;20113;-75
2023/08/12 06:55:50;;;;;;;9.57;8.02;;;;;;;;;;5145006;27;20046;-74
2023/08/12 06:58:16;;;;;;;9.35;7.70;;;;;;;;;;5137974;27;20383;-75
2023/08/12 07:00:42;;;;;;;9.25;7.93;;;;;;;;;;5132266;27;20039;-74
2023/08/12 07:03:09;;;;;;;7.82;7.20;;;;;;;;;;5132334;27;20537;-75
2023/08/12 07:05:35;;;;;;;11.57;7.57;;;;;;;;;;5131979;27;20391;-75
2023/08/12 07:08:01;;;;;;;8.10;7.05;;;;;;;;;;5113843;27;20039;-74
2023/08/12 07:10:28;;;;;;;10.32;7.88;;;;;;;;;;5113918;27;20061;-73
2023/08/12 07:12:54;;;;;;;9.18;8.30;;;;;;;;;;5131913;27;20043;-75
2023/08/12 07:15:20;;;;;;;17.90;8.10;;;;;;;;;;5131713;27;20130;-74
2023/08/12 07:17:46;;;;;;;9.20;7.78;;;;;;;;;;5132038;27;20496;-74
2023/08/12 07:20:12;;;;;;;16.35;8.18;;;;;;;;;;5131699;27;20047;-75
2023/08/12 07:22:38;;;;;;;12.30;8.48;;;;;;;;;;5131521;27;20516;-74
2023/08/12 07:25:05;;;;;;;9.95;9.00;;;;;;;;;;5131950;27;20031;-74
2023/08/12 07:27:31;;;;;;;11.48;8.18;;;;;;;;;;5131220;27;20443;-73
2023/08/12 07:29:57;;;;;;;11.70;8.27;;;;;;;;;;5113522;27;20035;-75
2023/08/12 07:32:23;;;;;;;7.90;7.25;;;;;;;;;;5131374;27;20027;-74
2023/08/12 07:34:50;;;;;;;9.07;7.97;;;;;;;;;;5112978;27;20528;-75
2023/08/12 07:37:16;;;;;;;8.70;7.70;;;;;;;;;;5131582;27;20110;-74
2023/08/12 07:39:42;;;;;;;8.38;7.72;;;;;;;;;;5131260;27;20126;-75
2023/08/12 07:42:08;;;;;;;8.48;7.60;;;;;;;;;;5113131;27;20032;-76
2023/08/12 07:44:34;;;;;;;8.65;7.90;;;;;;;;;;5131064;27;20035;-75
2023/08/12 07:47:00;;;;;;;11.88;8.10;;;;;;;;;;5131595;27;20031;-75
2023/08/12 07:49:26;;;;;;;8.93;7.50;;;;;;;;;;5131100;27;20501;-74
2023/08/12 07:51:53;;;;;;;9.18;8.30;;;;;;;;;;5131919;27;20066;-73
2023/08/12 07:54:19;;;;;;;11.10;9.95;;;;;;;;;;5131852;27;20039;-74
2023/08/12 07:56:45;;;;;;;10.80;9.75;;;;;;;;;;5131660;27;20030;-74
2023/08/12 07:59:11;;;;;;;12.38;10.27;;;;;;;;;;5131111;27;20038;-74
2023/08/12 08:01:37;;;;;;;9.85;9.10;;;;;;;;;;5131101;27;20083;-74
2023/08/12 08:04:03;;;;;;;11.63;9.30;;;;;;;;;;5131261;27;20122;-75
2023/08/12 08:06:30;;;;;;;9.23;8.23;;;;;;;;;;5112504;27;20038;-75
2023/08/12 08:08:56;;;;;;;10.95;8.85;;;;;;;;;;5131102;27;20541;-74
2023/08/12 08:11:24;;;;;;;12.10;9.38;;;;;;;;;;5112813;28;20031;-73
2023/08/12 08:13:50;;;;;;;9.82;8.88;;;;;;;;;;5131050;27;20109;-74
2023/08/12 08:16:16;;;;;;;10.20;9.20;;;;;;;;;;5112911;27;20516;-74
2023/08/12 08:18:42;;;;;;;10.23;9.30;;;;;;;;;;5112569;27;20039;-75
2023/08/12 08:21:08;;;;;;;12.40;8.93;;;;;;;;;;5114064;27;20069;-75
2023/08/12 08:23:35;;;;;;;9.93;8.95;;;;;;;;;;5130595;27;20043;-75
2023/08/12 08:26:02;;;;;;;10.75;9.80;;;;;;;;;;5135980;27;20110;-75
2023/08/12 08:28:28;;;;;;;10.32;9.43;;;;;;;;;;5133309;27;20043;-74
2023/08/12 08:30:54;;;;;;;10.48;9.43;;;;;;;;;;5131029;27;20457;-75
2023/08/12 08:33:20;;;;;;;8.23;7.57;;;;;;;;;;5112605;27;20401;-74
2023/08/12 08:35:46;;;;;;;12.98;8.85;;;;;;;;;;5112499;27;20496;-75
2023/08/12 08:38:12;;;;;;;10.45;8.82;;;;;;;;;;5130753;27;20071;-74
2023/08/12 08:40:38;;;;;;;15.48;9.55;;;;;;;;;;5130389;27;20532;-76
2023/08/12 08:43:05;;;;;;;13.85;9.43;;;;;;;;;;5130612;27;20058;-75
2023/08/12 08:45:32;;;;;;;10.95;9.57;;;;;;;;;;5130360;27;20066;-75
2023/08/12 08:47:58;;;;;;;13.05;9.98;;;;;;;;;;5134256;27;20143;-76
2023/08/12 08:50:24;;;;;;;12.32;9.93;;;;;;;;;;5134854;27;20060;-75
2023/08/12 08:52:50;;;;;;;17.13;9.60;;;;;;;;;;5134827;27;20042;-74
2023/08/12 08:55:16;;;;;;;18.60;10.13;;;;;;;;;;5099761;27;20031;-75
2023/08/12 08:57:43;;;;;;;18.10;10.02;;;;;;;;;;5134593;27;20038;-74
2023/08/12 09:00:10;;;;;;;14.60;9.95;;;;;;;;;;5134834;27;20490;-75
2023/08/12 09:02:37;;;;;;;17.23;10.93;;;;;;;;;;5134331;27;20059;-75
2023/08/12 09:05:03;;;;;;;19.50;10.25;;;;;;;;;;5116247;27;20124;-76
2023/08/12 09:07:30;;;;;;;21.40;10.60;;;;;;;;;;5115937;27;20037;-75
2023/08/12 09:09:56;;;;;;;11.15;10.02;;;;;;;;;;5115988;27;20039;-75
2023/08/12 09:12:22;;;;;;;14.90;10.20;;;;;;;;;;5116010;27;20519;-73
2023/08/12 09:14:48;;;;;;;10.05;9.07;;;;;;;;;;5134149;27;20034;-75
2023/08/12 09:17:14;;;;;;;10.55;9.65;;;;;;;;;;5134500;27;20027;-74
2023/08/12 09:19:40;;;;;;;12.05;9.93;;;;;;;;;;5134034;27;20302;-75
2023/08/12 09:22:08;;;;;;;11.65;9.55;;;;;;;;;;5116095;27;20031;-76
2023/08/12 09:24:35;;;;;;;11.02;10.05;;;;;;;;;;5115550;27;20130;-74
2023/08/12 09:27:01;;;;;;;10.15;9.20;;;;;;;;;;5115702;27;20027;-75
2023/08/12 09:29:31;;;;;;;10.20;9.25;;;;;;;;;;5133730;27;20047;-75
2023/08/12 09:32:11;;;;;;;11.93;8.98;;;;;;;;;;5134105;27;20130;-76
2023/08/12 09:34:38;;;;;;;10.85;8.95;;;;;;;;;;5098499;27;20035;-75
2023/08/12 09:37:04;;;;;;;10.25;9.27;;;;;;;;;;5134241;27;20035;-75
2023/08/12 09:39:30;;;;;;;11.23;10.13;;;;;;;;;;5115558;27;20115;-75
2023/08/12 09:41:57;;;;;;;8.98;8.07;;;;;;;;;;5115935;27;20035;-75
2023/08/12 09:44:23;;;;;;;12.18;9.40;;;;;;;;;;5133924;27;20077;-75
2023/08/12 09:46:56;;;;;;;9.98;8.68;;;;;;;;;;5133792;27;20553;-75
2023/08/12 09:49:22;;;;;;;10.13;9.25;;;;;;;;;;5133978;27;20043;-74
2023/08/12 09:51:48;;;;;;;10.13;9.32;;;;;;;;;;5133865;27;21094;-75
2023/08/12 09:54:14;;;;;;;11.38;9.07;;;;;;;;;;5133982;27;20038;-75
2023/08/12 09:56:40;;;;;;;10.00;9.30;;;;;;;;;;5119840;27;20672;-75
2023/08/12 09:59:07;;;;;;;9.50;8.75;;;;;;;;;;5125354;27;20035;-75
2023/08/12 10:01:33;;;;;;;10.57;9.60;;;;;;;;;;5141271;27;20035;-74
2023/08/12 10:03:59;;;;;;;12.18;9.02;;;;;;;;;;5137214;27;20117;-75
2023/08/12 10:06:26;;;;;;;11.23;9.73;;;;;;;;;;5133864;27;20027;-75
2023/08/12 10:08:52;;;;;;;10.75;9.63;;;;;;;;;;5133277;27;20071;-74
2023/08/12 10:11:18;;;;;;;11.20;10.07;;;;;;;;;;5133319;27;20031;-74
2023/08/12 10:13:44;;;;;;;11.15;10.25;;;;;;;;;;5132897;27;20482;-75
2023/08/12 10:16:10;;;;;;;11.48;10.48;;;;;;;;;;5115085;27;20110;-76
2023/08/12 10:18:36;;;;;;;12.13;10.15;;;;;;;;;;5114670;27;20054;-75
2023/08/12 10:21:03;;;;;;;11.70;10.82;;;;;;;;;;5115061;27;20035;-75
2023/08/12 10:23:30;;;;;;;14.60;11.98;;;;;;;;;;5133040;27;20027;-74
2023/08/12 10:25:56;;;;;;;11.55;10.40;;;;;;;;;;5132969;27;20164;-74
2023/08/12 10:28:22;;;;;;;15.15;10.23;;;;;;;;;;5132757;27;20035;-73
2023/08/12 10:30:47;;;;;;;12.18;10.25;;;;;;;;;;5114250;27;20035;-74
2023/08/12 10:33:16;;;;;;;17.48;11.10;;;;;;;;;;5114749;27;20059;-74
2023/08/12 10:35:48;;;;;;;13.52;12.00;;;;;;;;;;5132775;27;20531;-75
2023/08/12 10:38:16;;;;;;;12.57;11.57;;;;;;;;;;5132932;27;20417;-75
2023/08/12 10:40:43;;;;;;;10.93;10.13;;;;;;;;;;5132598;27;20038;-75
2023/08/12 10:43:09;;;;;;;12.32;11.00;;;;;;;;;;5132882;27;20058;-75
2023/08/12 10:45:49;;;;;;;12.88;11.75;;;;;;;;;;5132601;27;20087;-74
2023/08/12 10:48:17;;;;;;;12.38;11.15;;;;;;;;;;5132640;27;20034;-75
2023/08/12 10:50:48;;;;;;;12.13;11.05;;;;;;;;;;5114372;27;20096;-74
2023/08/12 10:53:20;;;;;;;11.40;10.43;;;;;;;;;;5114333;27;20526;-74
2023/08/12 10:55:48;;;;;;;12.10;10.90;;;;;;;;;;5132280;27;20129;-75
2023/08/12 10:58:24;;;;;;;12.88;11.73;;;;;;;;;;5132458;27;20087;-74
2023/08/12 11:00:54;;;;;;;10.52;9.65;;;;;;;;;;5114075;27;20065;-75
2023/08/12 11:03:20;;;;;;;11.27;10.18;;;;;;;;;;5096999;27;20035;-75
2023/08/12 11:05:46;;;;;;;11.52;10.30;;;;;;;;;;5132395;27;20031;-75
2023/08/12 11:08:13;;;;;;;12.50;11.25;;;;;;;;;;5132460;27;20039;-74
2023/08/12 11:10:39;;;;;;;13.18;11.82;;;;;;;;;;5131651;27;20045;-75
2023/08/12 11:13:05;;;;;;;11.57;10.10;;;;;;;;;;5132532;27;20035;-75
2023/08/12 11:15:36;;;;;;;11.90;10.52;;;;;;;;;;5114416;27;20062;-74
2023/08/12 11:18:06;;;;;;;8.07;7.47;;;;;;;;;;5132388;27;20027;-75
2023/08/12 11:20:32;;;;;;;10.07;8.68;;;;;;;;;;5133439;27;20035;-72
2023/08/12 11:22:59;;;;;;;12.65;11.45;;;;;;;;;;5132541;27;20031;-72
2023/08/12 11:25:25;;;;;;;11.43;10.35;;;;;;;;;;5132381;27;20043;-74
2023/08/12 11:27:52;;;;;;;9.65;8.70;;;;;;;;;;5113922;27;20045;-72
2023/08/12 11:30:20;;;;;;;8.30;7.38;;;;;;;;;;5132444;27;20046;-72
2023/08/12 11:32:46;;;;;;;9.55;8.70;;;;;;;;;;5132103;27;20504;-73
2023/08/12 11:35:13;;;;;;;19.27;12.98;;;;;;;;;;5132047;27;20067;-74
2023/08/12 11:37:39;;;;;;;13.77;12.45;;;;;;;;;;5113583;27;20035;-72
2023/08/12 11:40:08;;;;;;;14.93;13.50;;;;;;;;;;5131618;27;20035;-73
2023/08/12 11:42:36;;;;;;;16.30;12.07;;;;;;;;;;5096718;27;20026;-72
2023/08/12 11:45:03;;;;;;;13.85;12.73;;;;;;;;;;5131780;27;20088;-73
2023/08/12 11:47:31;;;;;;;13.98;12.63;;;;;;;;;;5131665;27;20050;-74
2023/08/12 11:49:57;;;;;;;15.10;13.55;;;;;;;;;;5131115;27;20138;-72
2023/08/12 11:52:23;;;;;;;17.45;14.55;;;;;;;;;;5131636;27;20096;-72
2023/08/12 11:54:50;;;;;;;14.07;12.98;;;;;;;;;;5112787;27;20043;-73
2023/08/12 11:57:17;;;;;;;14.45;12.98;;;;;;;;;;5131409;27;20079;-73
2023/08/12 11:59:43;;;;;;;8.32;7.72;;;;;;;;;;5131015;27;20030;-73
2023/08/12 12:02:10;;;;;;;11.15;10.15;;;;;;;;;;5113265;27;20067;-75
2023/08/12 12:04:36;;;;;;;11.25;9.50;;;;;;;;;;5131178;27;20450;-72
2023/08/12 12:07:06;;;;;;;12.93;9.00;;;;;;;;;;5131364;27;20031;-73
2023/08/12 12:09:32;;;;;;;17.50;12.10;;;;;;;;;;5131014;27;20062;-72
2023/08/12 12:12:00;;;;;;;14.27;12.88;;;;;;;;;;5112774;27;20035;-72
2023/08/12 12:14:26;;;;;;;11.55;10.43;;;;;;;;;;5112537;28;20066;-71
2023/08/12 12:16:52;;;;;;;12.68;11.48;;;;;;;;;;5131039;27;20382;-72
2023/08/12 12:19:19;;;;;;;13.02;11.82;;;;;;;;;;5131084;27;20038;-71
2023/08/12 12:21:45;;;;;;;10.93;8.93;;;;;;;;;;5136407;27;20105;-73
2023/08/12 12:24:11;;;;;;;14.15;12.85;;;;;;;;;;5137832;27;20031;-72
2023/08/12 12:26:38;;;;;;;14.13;12.85;;;;;;;;;;5137809;27;20027;-72
2023/08/12 12:29:04;;;;;;;15.55;14.20;;;;;;;;;;5137829;27;20132;-72
2023/08/12 12:31:31;;;;;;;19.63;17.83;;;;;;;;;;5119350;27;20035;-74
2023/08/12 12:33:57;;;;;;;11.80;10.85;;;;;;;;;;5137479;27;20152;-72
2023/08/12 12:36:23;;;;;;;19.52;13.90;;;;;;;;;;5137845;27;20114;-73
2023/08/12 12:38:49;;;;;;;13.57;12.23;;;;;;;;;;5137337;27;20118;-73
2023/08/12 12:41:15;;;;;;;14.02;12.68;;;;;;;;;;5119378;27;20043;-72
2023/08/12 12:43:41;;;;;;;14.68;13.30;;;;;;;;;;5137408;27;20039;-73
2023/08/12 12:46:07;;;;;;;10.07;9.25;;;;;;;;;;5119409;27;20454;-73
2023/08/12 12:48:33;;;;;;;12.80;11.50;;;;;;;;;;5119347;27;20117;-76
2023/08/12 12:51:00;;;;;;;14.32;9.80;;;;;;;;;;5137479;27;20035;-72
2023/08/12 12:53:26;;;;;;;10.82;9.82;;;;;;;;;;5119409;27;20126;-73
2023/08/12 12:55:52;;;;;;;13.93;12.63;;;;;;;;;;5119400;27;20031;-72
2023/08/12 12:58:18;;;;;;;13.98;12.75;;;;;;;;;;5119580;27;20074;-73
2023/08/12 13:00:44;;;;;;;12.85;11.65;;;;;;;;;;5138559;27;20042;-73
2023/08/12 13:03:11;;;;;;;13.82;12.48;;;;;;;;;;5139173;27;20043;-74
2023/08/12 13:05:37;;;;;;;15.15;13.95;;;;;;;;;;5121656;27;20034;-73
2023/08/12 13:08:03;;;;;;;14.57;13.00;;;;;;;;;;5138958;27;20035;-73
2023/08/12 13:10:29;;;;;;;15.90;13.05;;;;;;;;;;5122953;27;20042;-74
2023/08/12 13:12:55;;;;;;;13.85;12.65;;;;;;;;;;5140827;27;20043;-73
2023/08/12 13:15:24;;;;;;;13.70;12.60;;;;;;;;;;5121977;27;20183;-73
2023/08/12 13:17:50;;;;;;;10.07;9.18;;;;;;;;;;5139960;27;20405;-72
2023/08/12 13:20:15;;;;;;;12.23;11.18;;;;;;;;;;5121524;27;20035;-73
2023/08/12 13:22:42;;;;;;;10.13;9.32;;;;;;;;;;5137775;27;20027;-74
2023/08/12 13:25:08;;;;;;;10.35;9.35;;;;;;;;;;5137647;27;20047;-73
2023/08/12 13:27:34;;;;;;;10.30;9.35;;;;;;;;;;5119247;27;20053;-73
2023/08/12 13:30:00;;;;;;;7.95;6.07;;;;;;;;;;5101787;27;20042;-72
2023/08/12 13:32:26;;;;;;;8.48;7.88;;;;;;;;;;5135256;27;20039;-73
2023/08/12 13:34:52;;;;;;;18.10;10.48;;;;;;;;;;5115513;27;20027;-75
2023/08/12 13:37:18;;;;;;;11.40;10.38;;;;;;;;;;5134317;27;20505;-73
2023/08/12 13:39:45;;;;;;;12.43;11.48;;;;;;;;;;5133854;27;20038;-74
2023/08/12 13:42:10;;;;;;;11.48;10.40;;;;;;;;;;5134190;27;20039;-75
2023/08/12 13:44:36;;;;;;;12.20;10.98;;;;;;;;;;5133997;27;20516;-74
2023/08/12 13:47:02;;;;;;;13.02;11.70;;;;;;;;;;5133913;27;20412;-74
2023/08/12 13:49:29;;;;;;;10.43;9.63;;;;;;;;;;5133741;27;20042;-74
2023/08/12 13:51:55;;;;;;;11.65;10.65;;;;;;;;;;5115326;27;20050;-74
2023/08/12 13:54:20;;;;;;;11.80;10.80;;;;;;;;;;5133551;27;20520;-74
2023/08/12 13:56:47;;;;;;;11.63;10.50;;;;;;;;;;5133332;27;20057;-74
2023/08/12 13:59:13;;;;;;;11.13;10.30;;;;;;;;;;5098152;27;20409;-75
2023/08/12 14:01:39;;;;;;;10.60;9.70;;;;;;;;;;5115373;27;20031;-75
2023/08/12 14:04:05;;;;;;;12.50;9.50;;;;;;;;;;5133164;27;20042;-74
2023/08/12 14:06:31;;;;;;;11.65;10.05;;;;;;;;;;5133518;27;20039;-74
2023/08/12 14:08:57;;;;;;;10.20;9.40;;;;;;;;;;5133224;27;20051;-76
2023/08/12 14:11:23;;;;;;;9.77;8.88;;;;;;;;;;5133634;27;20073;-75
2023/08/12 14:13:49;;;;;;;9.48;8.50;;;;;;;;;;5113420;28;20051;-74
2023/08/12 14:16:15;;;;;;;9.95;9.18;;;;;;;;;;5112576;28;20126;-76
2023/08/12 14:18:41;;;;;;;11.85;9.63;;;;;;;;;;5113849;28;20126;-76
2023/08/12 14:21:07;;;;;;;10.80;9.80;;;;;;;;;;5112602;28;20515;-75
2023/08/12 14:23:33;;;;;;;10.50;9.48;;;;;;;;;;5114199;28;20480;-74